createdAt,value
2018-12-30T00:01:54.935Z,8.30
2018-12-30T00:04:44.684Z,8.30
2018-12-30T00:07:33.549Z,8.30
2018-12-30T00:10:21.731Z,8.30
2018-12-30T00:13:11.187Z,8.30
2018-12-30T00:15:59.573Z,8.30
2018-12-30T00:18:49.617Z,8.30
2018-12-30T00:21:37.920Z,8.30
2018-12-30T00:24:26.928Z,8.30
2018-12-30T00:27:15.869Z,8.30
2018-12-30T00:30:04.742Z,8.30
2018-12-30T00:32:53.647Z,8.30
2018-12-30T00:35:42.251Z,8.30
2018-12-30T00:38:30.714Z,8.30
2018-12-30T00:41:19.430Z,8.40
2018-12-30T00:44:09.442Z,8.50
2018-12-30T00:46:58.450Z,8.50
2018-12-30T00:49:46.438Z,8.50
2018-12-30T00:52:35.764Z,8.50
2018-12-30T00:55:24.375Z,8.40
2018-12-30T00:58:12.361Z,8.40
2018-12-30T01:01:01.460Z,8.40
2018-12-30T01:03:49.341Z,8.40
2018-12-30T01:06:43.269Z,8.40
2018-12-30T01:09:31.919Z,8.40
2018-12-30T01:12:19.844Z,8.40
2018-12-30T01:15:08.018Z,8.40
2018-12-30T01:17:59.123Z,8.40
2018-12-30T01:20:47.299Z,8.40
2018-12-30T01:23:36.134Z,8.30
2018-12-30T01:26:24.878Z,8.30
2018-12-30T01:29:13.715Z,8.30
2018-12-30T01:32:02.883Z,8.30
2018-12-30T01:34:51.434Z,8.30
2018-12-30T01:37:40.166Z,8.30
2018-12-30T01:40:28.549Z,8.30
2018-12-30T01:43:17.230Z,8.30
2018-12-30T01:46:05.731Z,8.40
2018-12-30T01:48:55.368Z,8.30
2018-12-30T01:51:43.830Z,8.30
2018-12-30T01:54:32.611Z,8.20
2018-12-30T01:57:21.045Z,8.20
2018-12-30T02:00:09.995Z,8.10
2018-12-30T02:02:58.274Z,8.10
2018-12-30T02:05:46.746Z,8.00
2018-12-30T02:08:35.390Z,8.00
2018-12-30T02:11:23.838Z,8.00
2018-12-30T02:14:13.368Z,8.00
2018-12-30T02:17:01.576Z,8.00
2018-12-30T02:19:51.559Z,8.00
2018-12-30T02:22:39.526Z,8.00
2018-12-30T02:25:27.382Z,8.00
2018-12-30T02:28:15.738Z,8.00
2018-12-30T02:31:03.487Z,8.00
2018-12-30T02:33:53.634Z,8.00
2018-12-30T02:36:42.707Z,8.00
2018-12-30T02:39:30.890Z,8.00
2018-12-30T02:42:19.711Z,8.00
2018-12-30T02:45:07.967Z,8.10
2018-12-30T02:47:57.703Z,8.10
2018-12-30T02:50:46.572Z,8.10
2018-12-30T02:53:34.973Z,8.10
2018-12-30T02:56:23.863Z,8.10
2018-12-30T02:59:12.619Z,8.00
2018-12-30T03:02:11.597Z,8.10
2018-12-30T03:04:59.407Z,8.10
2018-12-30T03:07:48.437Z,8.10
2018-12-30T03:10:36.254Z,8.10
2018-12-30T03:13:24.910Z,8.00
2018-12-30T03:16:12.830Z,8.00
2018-12-30T03:19:01.632Z,8.00
2018-12-30T03:21:58.955Z,8.00
2018-12-30T03:24:41.049Z,8.10
2018-12-30T03:27:29.304Z,8.10
2018-12-30T03:30:17.029Z,8.10
2018-12-30T03:33:05.380Z,8.10
2018-12-30T03:35:53.669Z,8.00
2018-12-30T03:38:41.891Z,8.00
2018-12-30T03:41:30.464Z,8.00
2018-12-30T03:44:18.870Z,8.00
2018-12-30T03:47:06.844Z,8.00
2018-12-30T03:49:55.837Z,8.00
2018-12-30T03:52:44.354Z,8.00
2018-12-30T03:55:33.658Z,8.00
2018-12-30T03:58:22.147Z,8.00
2018-12-30T04:01:10.538Z,8.00
2018-12-30T04:03:59.703Z,8.00
2018-12-30T04:06:47.896Z,8.00
2018-12-30T04:09:36.391Z,7.90
2018-12-30T04:12:25.558Z,7.90
2018-12-30T04:15:13.899Z,7.90
2018-12-30T04:18:02.612Z,7.80
2018-12-30T04:20:50.519Z,7.80
2018-12-30T04:23:38.711Z,7.80
2018-12-30T04:26:27.211Z,7.80
2018-12-30T04:29:15.274Z,7.90
2018-12-30T04:32:04.259Z,7.90
2018-12-30T04:34:52.193Z,7.90
2018-12-30T04:37:42.771Z,7.90
2018-12-30T04:40:30.834Z,7.90
2018-12-30T04:43:19.732Z,7.80
2018-12-30T04:46:08.032Z,7.90
2018-12-30T04:48:56.315Z,7.90
2018-12-30T04:51:45.007Z,7.90
2018-12-30T04:54:32.880Z,7.90
2018-12-30T04:57:20.906Z,7.90
2018-12-30T05:00:09.467Z,7.90
2018-12-30T05:02:57.816Z,7.90
2018-12-30T05:05:47.129Z,7.90
2018-12-30T05:08:35.822Z,7.80
2018-12-30T05:11:24.574Z,7.90
2018-12-30T05:14:12.623Z,7.90
2018-12-30T05:17:00.982Z,7.90
2018-12-30T05:19:49.066Z,7.90
2018-12-30T05:22:37.691Z,7.90
2018-12-30T05:25:25.698Z,7.90
2018-12-30T05:28:14.291Z,7.90
2018-12-30T05:31:03.663Z,7.90
2018-12-30T05:33:51.875Z,7.90
2018-12-30T05:36:39.998Z,7.80
2018-12-30T05:39:28.980Z,7.80
2018-12-30T05:42:17.566Z,7.80
2018-12-30T05:45:16.644Z,7.80
2018-12-30T05:48:05.805Z,7.80
2018-12-30T05:50:54.343Z,7.80
2018-12-30T05:53:43.390Z,7.80
2018-12-30T05:56:32.088Z,7.80
2018-12-30T05:59:20.787Z,7.70
2018-12-30T06:02:08.405Z,7.80
2018-12-30T06:04:58.223Z,7.80
2018-12-30T06:07:46.666Z,7.80
2018-12-30T06:10:34.907Z,7.80
2018-12-30T06:13:23.402Z,7.70
2018-12-30T06:16:11.826Z,7.70
2018-12-30T06:19:00.642Z,7.70
2018-12-30T06:21:49.263Z,7.60
2018-12-30T06:24:38.352Z,7.60
2018-12-30T06:27:26.826Z,7.60
2018-12-30T06:30:14.870Z,7.50
2018-12-30T06:33:03.382Z,7.50
2018-12-30T06:35:50.796Z,7.50
2018-12-30T06:38:38.798Z,7.50
2018-12-30T06:41:30.436Z,7.50
2018-12-30T06:44:18.374Z,7.50
2018-12-30T06:47:07.865Z,7.50
2018-12-30T06:49:56.676Z,7.50
2018-12-30T06:52:45.487Z,7.60
2018-12-30T06:55:34.200Z,7.60
2018-12-30T06:58:23.086Z,7.50
2018-12-30T07:01:11.122Z,7.60
2018-12-30T07:03:59.970Z,7.60
2018-12-30T07:06:48.610Z,7.60
2018-12-30T07:09:37.354Z,7.60
2018-12-30T07:12:25.634Z,7.60
2018-12-30T07:15:13.880Z,7.60
2018-12-30T07:18:01.554Z,7.60
2018-12-30T07:20:50.426Z,7.70
2018-12-30T07:23:38.217Z,7.60
2018-12-30T07:26:26.773Z,7.60
2018-12-30T07:29:14.667Z,7.50
2018-12-30T07:32:03.098Z,7.50
2018-12-30T07:34:50.914Z,7.50
2018-12-30T07:37:39.553Z,7.50
2018-12-30T07:40:27.430Z,7.50
2018-12-30T07:43:16.417Z,7.60
2018-12-30T07:46:04.223Z,7.60
2018-12-30T07:48:52.242Z,7.60
2018-12-30T07:51:40.595Z,7.60
2018-12-30T07:54:28.387Z,7.70
2018-12-30T07:57:16.101Z,7.70
2018-12-30T08:00:04.346Z,7.70
2018-12-30T08:02:52.446Z,7.70
2018-12-30T08:05:40.766Z,7.70
2018-12-30T08:08:30.011Z,7.70
2018-12-30T08:11:18.198Z,7.70
2018-12-30T08:14:08.008Z,7.70
2018-12-30T08:16:56.222Z,7.80
2018-12-30T08:19:44.870Z,7.80
2018-12-30T08:22:33.658Z,7.90
2018-12-30T08:25:23.188Z,7.90
2018-12-30T08:28:10.918Z,7.90
2018-12-30T08:30:59.538Z,7.90
2018-12-30T08:33:48.232Z,8.00
2018-12-30T08:36:37.215Z,8.00
2018-12-30T08:39:25.466Z,8.00
2018-12-30T08:42:16.001Z,8.10
2018-12-30T08:45:04.224Z,8.00
2018-12-30T08:47:52.734Z,8.00
2018-12-30T08:50:43.709Z,8.00
2018-12-30T08:53:32.527Z,8.00
2018-12-30T08:56:21.071Z,8.00
2018-12-30T08:59:09.859Z,8.00
2018-12-30T09:01:58.250Z,8.00
2018-12-30T09:04:46.010Z,8.10
2018-12-30T09:07:34.794Z,8.20
2018-12-30T09:10:23.583Z,8.30
2018-12-30T09:13:11.375Z,8.40
2018-12-30T09:15:59.147Z,8.60
2018-12-30T09:18:47.811Z,8.80
2018-12-30T09:21:35.642Z,8.90
2018-12-30T09:24:23.922Z,9.00
2018-12-30T09:27:12.102Z,9.10
2018-12-30T09:29:59.871Z,9.10
2018-12-30T09:32:48.054Z,9.20
2018-12-30T09:35:36.627Z,9.20
2018-12-30T09:38:25.466Z,9.10
2018-12-30T09:41:13.531Z,9.10
2018-12-30T09:44:02.139Z,9.10
2018-12-30T09:46:50.591Z,9.20
2018-12-30T09:49:39.057Z,9.10
2018-12-30T09:52:27.655Z,9.10
2018-12-30T09:55:16.910Z,9.30
2018-12-30T09:58:05.093Z,9.40
2018-12-30T10:00:53.812Z,9.20
2018-12-30T10:03:42.651Z,9.20
2018-12-30T10:06:31.334Z,9.20
2018-12-30T10:09:19.754Z,9.30
2018-12-30T10:12:09.155Z,9.20
2018-12-30T10:14:58.077Z,9.40
2018-12-30T10:17:46.382Z,9.30
2018-12-30T10:20:35.151Z,9.40
2018-12-30T10:23:23.357Z,9.40
2018-12-30T10:26:11.834Z,9.50
2018-12-30T10:28:59.660Z,9.40
2018-12-30T10:31:47.951Z,9.20
2018-12-30T10:34:36.467Z,9.10
2018-12-30T10:37:24.710Z,9.00
2018-12-30T10:40:13.452Z,9.00
2018-12-30T10:43:01.177Z,9.00
2018-12-30T10:45:49.378Z,9.00
2018-12-30T10:48:37.647Z,9.00
2018-12-30T10:51:25.702Z,8.90
2018-12-30T10:54:14.417Z,9.00
2018-12-30T10:57:03.071Z,9.00
2018-12-30T10:59:50.872Z,9.00
2018-12-30T11:02:39.350Z,9.00
2018-12-30T11:05:27.360Z,9.00
2018-12-30T11:08:15.682Z,9.20
2018-12-30T11:11:03.983Z,9.10
2018-12-30T11:13:52.698Z,9.20
2018-12-30T11:16:43.620Z,9.30
2018-12-30T11:19:32.162Z,9.50
2018-12-30T11:22:21.247Z,9.40
2018-12-30T11:25:09.538Z,9.50
2018-12-30T11:27:57.807Z,9.40
2018-12-30T11:30:46.447Z,9.40
2018-12-30T11:33:34.390Z,9.20
2018-12-30T11:36:22.438Z,9.30
2018-12-30T11:39:10.787Z,9.40
2018-12-30T11:41:59.249Z,9.20
2018-12-30T11:44:47.511Z,9.10
2018-12-30T11:47:36.027Z,9.10
2018-12-30T11:50:24.728Z,9.10
2018-12-30T11:53:13.377Z,9.30
2018-12-30T11:56:01.378Z,9.20
2018-12-30T11:58:50.154Z,9.10
2018-12-30T12:01:40.784Z,9.10
2018-12-30T12:04:29.238Z,9.00
2018-12-30T12:07:18.811Z,9.00
2018-12-30T12:10:07.490Z,9.10
2018-12-30T12:12:56.007Z,9.20
2018-12-30T12:15:44.089Z,9.30
2018-12-30T12:18:32.018Z,9.30
2018-12-30T12:21:20.539Z,9.30
2018-12-30T12:24:08.819Z,9.20
2018-12-30T12:26:57.118Z,9.20
2018-12-30T12:29:44.934Z,9.20
2018-12-30T12:32:33.392Z,9.10
2018-12-30T12:35:21.314Z,9.10
2018-12-30T12:38:09.958Z,9.20
2018-12-30T12:40:58.218Z,9.10
2018-12-30T12:43:47.067Z,9.10
2018-12-30T12:46:35.520Z,9.10
2018-12-30T12:49:25.322Z,9.10
2018-12-30T12:52:14.006Z,9.10
2018-12-30T12:55:02.555Z,9.00
2018-12-30T12:57:50.986Z,9.00
2018-12-30T13:00:39.827Z,9.00
2018-12-30T13:03:28.783Z,8.90
2018-12-30T13:06:16.691Z,8.90
2018-12-30T13:09:06.995Z,9.10
2018-12-30T13:11:55.382Z,9.10
2018-12-30T13:14:44.090Z,9.00
2018-12-30T13:17:32.333Z,9.00
2018-12-30T13:20:20.831Z,9.00
2018-12-30T13:23:09.568Z,9.00
2018-12-30T13:25:57.466Z,9.10
2018-12-30T13:28:46.543Z,9.10
2018-12-30T13:31:35.628Z,9.00
2018-12-30T13:34:24.074Z,9.10
2018-12-30T13:37:12.366Z,9.10
2018-12-30T13:40:00.798Z,9.10
2018-12-30T13:42:49.085Z,9.20
2018-12-30T13:45:37.859Z,9.10
2018-12-30T13:48:26.892Z,9.10
2018-12-30T13:51:15.938Z,9.10
2018-12-30T13:54:05.584Z,9.10
2018-12-30T13:56:53.679Z,9.10
2018-12-30T13:59:42.383Z,9.10
2018-12-30T14:02:30.754Z,9.20
2018-12-30T14:05:19.403Z,9.20
2018-12-30T14:08:07.767Z,9.20
2018-12-30T14:10:56.210Z,9.20
2018-12-30T14:13:43.790Z,9.10
2018-12-30T14:16:32.333Z,9.10
2018-12-30T14:19:20.716Z,9.00
2018-12-30T14:22:08.935Z,9.00
2018-12-30T14:24:57.499Z,9.00
2018-12-30T14:27:45.410Z,8.90
2018-12-30T14:30:33.666Z,8.90
2018-12-30T14:33:21.657Z,8.90
2018-12-30T14:36:09.546Z,9.00
2018-12-30T14:38:58.139Z,9.00
2018-12-30T14:41:46.851Z,9.00
2018-12-30T14:44:36.130Z,8.90
2018-12-30T14:47:24.402Z,8.90
2018-12-30T14:50:14.563Z,8.80
2018-12-30T14:53:02.909Z,8.70
2018-12-30T14:55:51.259Z,8.70
2018-12-30T14:58:39.471Z,8.70
2018-12-30T15:01:27.923Z,8.70
2018-12-30T15:04:15.918Z,8.70
2018-12-30T15:07:03.978Z,8.70
2018-12-30T15:09:52.622Z,8.60
2018-12-30T15:12:41.002Z,8.60
2018-12-30T15:15:29.566Z,8.60
2018-12-30T15:18:17.338Z,8.60
2018-12-30T15:21:05.947Z,8.60
2018-12-30T15:23:54.810Z,8.50
2018-12-30T15:26:42.874Z,8.50
2018-12-30T15:29:30.386Z,8.40
2018-12-30T15:32:18.098Z,8.40
2018-12-30T15:35:06.413Z,8.40
2018-12-30T15:37:54.766Z,8.40
2018-12-30T15:40:43.558Z,8.40
2018-12-30T15:43:32.246Z,8.40
2018-12-30T15:46:20.839Z,8.40
2018-12-30T15:49:08.839Z,8.40
2018-12-30T15:52:00.230Z,8.30
2018-12-30T15:54:48.710Z,8.30
2018-12-30T15:57:37.498Z,8.30
2018-12-30T16:00:26.288Z,8.30
2018-12-30T16:03:14.747Z,8.30
2018-12-30T16:06:02.962Z,8.40
2018-12-30T16:08:51.386Z,8.30
2018-12-30T16:11:39.407Z,8.30
2018-12-30T16:14:27.499Z,8.20
2018-12-30T16:17:15.950Z,8.20
2018-12-30T16:20:04.732Z,8.20
2018-12-30T16:22:52.514Z,8.20
2018-12-30T16:25:40.778Z,8.20
2018-12-30T16:28:28.842Z,8.20
2018-12-30T16:31:17.301Z,8.20
2018-12-30T16:34:05.654Z,8.20
2018-12-30T16:36:54.038Z,8.20
2018-12-30T16:39:42.619Z,8.30
2018-12-30T16:42:30.831Z,8.30
2018-12-30T16:45:19.442Z,8.20
2018-12-30T16:48:09.602Z,8.20
2018-12-30T16:50:58.386Z,8.20
2018-12-30T16:53:46.646Z,8.20
2018-12-30T16:56:34.705Z,8.30
2018-12-30T16:59:23.150Z,8.30
2018-12-30T17:02:11.734Z,8.30
2018-12-30T17:05:00.287Z,8.30
2018-12-30T17:07:48.951Z,8.30
2018-12-30T17:10:37.943Z,8.20
2018-12-30T17:13:26.446Z,8.30
2018-12-30T17:16:14.785Z,8.20
2018-12-30T17:19:03.787Z,8.20
2018-12-30T17:21:52.278Z,8.20
2018-12-30T17:24:40.869Z,8.20
2018-12-30T17:27:29.458Z,8.20
2018-12-30T17:30:17.473Z,8.20
2018-12-30T17:33:05.861Z,8.20
2018-12-30T17:35:54.655Z,8.20
2018-12-30T17:38:43.575Z,8.20
2018-12-30T17:41:42.436Z,8.20
2018-12-30T17:44:30.426Z,8.10
2018-12-30T17:47:19.058Z,8.10
2018-12-30T17:50:09.476Z,8.10
2018-12-30T17:53:01.136Z,8.10
2018-12-30T17:55:52.487Z,8.10
2018-12-30T17:58:41.824Z,8.10
2018-12-30T18:01:30.885Z,8.10
2018-12-30T18:04:18.989Z,8.10
2018-12-30T18:07:07.760Z,8.10
2018-12-30T18:09:56.015Z,8.00
2018-12-30T18:12:44.583Z,8.00
2018-12-30T18:15:32.386Z,8.00
2018-12-30T18:18:21.514Z,8.00
2018-12-30T18:21:09.532Z,8.00
2018-12-30T18:23:58.106Z,8.00
2018-12-30T18:26:46.707Z,8.00
2018-12-30T18:29:35.147Z,7.90
2018-12-30T18:32:23.646Z,7.90
2018-12-30T18:35:12.196Z,7.90
2018-12-30T18:38:01.640Z,7.90
2018-12-30T18:40:50.774Z,8.00
2018-12-30T18:43:38.614Z,7.90
2018-12-30T18:46:27.274Z,8.00
2018-12-30T18:49:15.891Z,7.90
2018-12-30T18:52:05.123Z,7.90
2018-12-30T18:54:53.090Z,8.00
2018-12-30T18:57:41.642Z,8.00
2018-12-30T19:00:30.323Z,8.10
2018-12-30T19:03:18.501Z,8.10
2018-12-30T19:06:06.283Z,8.00
2018-12-30T19:08:55.878Z,8.00
2018-12-30T19:11:44.342Z,8.00
2018-12-30T19:14:33.518Z,8.10
2018-12-30T19:17:21.754Z,8.10
2018-12-30T19:20:09.955Z,8.10
2018-12-30T19:22:58.158Z,8.10
2018-12-30T19:25:47.446Z,8.10
2018-12-30T19:28:34.955Z,8.10
2018-12-30T19:31:23.251Z,8.20
2018-12-30T19:34:13.071Z,8.20
2018-12-30T19:37:01.312Z,8.20
2018-12-30T19:39:50.502Z,8.10
2018-12-30T19:42:38.802Z,8.20
2018-12-30T19:45:27.569Z,8.20
2018-12-30T19:48:15.514Z,8.20
2018-12-30T19:51:03.749Z,8.20
2018-12-30T19:53:51.925Z,8.30
2018-12-30T19:56:40.698Z,8.20
2018-12-30T19:59:30.516Z,8.20
2018-12-30T20:02:18.737Z,8.20
2018-12-30T20:05:06.946Z,8.30
2018-12-30T20:07:55.387Z,8.30
2018-12-30T20:10:43.387Z,8.30
2018-12-30T20:13:31.650Z,8.30
2018-12-30T20:16:20.086Z,8.30
2018-12-30T20:19:07.826Z,8.30
2018-12-30T20:21:56.588Z,8.40
2018-12-30T20:24:45.225Z,8.40
2018-12-30T20:27:34.295Z,8.40
2018-12-30T20:30:23.045Z,8.30
2018-12-30T20:33:10.953Z,8.30
2018-12-30T20:35:59.771Z,8.30
2018-12-30T20:38:47.899Z,8.30
2018-12-30T20:41:36.154Z,8.30
2018-12-30T20:44:24.595Z,8.30
2018-12-30T20:47:13.069Z,8.30
2018-12-30T20:50:00.940Z,8.30
2018-12-30T20:52:49.417Z,8.30
2018-12-30T20:55:37.837Z,8.30
2018-12-30T20:58:26.335Z,8.30
2018-12-30T21:01:14.192Z,8.30
2018-12-30T21:04:02.706Z,8.30
2018-12-30T21:06:51.840Z,8.30
2018-12-30T21:09:40.533Z,8.30
2018-12-30T21:12:29.984Z,8.30
2018-12-30T21:15:17.793Z,8.30
2018-12-30T21:18:06.700Z,8.30
2018-12-30T21:20:55.294Z,8.30
2018-12-30T21:23:43.820Z,8.30
2018-12-30T21:26:32.475Z,8.30
2018-12-30T21:29:20.617Z,8.30
2018-12-30T21:32:08.666Z,8.30
2018-12-30T21:34:57.683Z,8.30
2018-12-30T21:37:46.423Z,8.30
2018-12-30T21:40:35.906Z,8.30
2018-12-30T21:43:27.462Z,8.30
2018-12-30T21:46:15.514Z,8.30
2018-12-30T21:49:03.832Z,8.30
2018-12-30T21:51:52.210Z,8.30
2018-12-30T21:54:40.684Z,8.30
2018-12-30T21:57:29.127Z,8.30
2018-12-30T22:00:17.926Z,8.30
2018-12-30T22:03:06.689Z,8.40
2018-12-30T22:05:55.666Z,8.30
2018-12-30T22:08:43.914Z,8.40
2018-12-30T22:11:34.863Z,8.40
2018-12-30T22:14:23.631Z,8.40
2018-12-30T22:17:11.818Z,8.40
2018-12-30T22:20:00.839Z,8.40
2018-12-30T22:22:49.530Z,8.40
2018-12-30T22:25:38.205Z,8.50
2018-12-30T22:28:26.298Z,8.50
2018-12-30T22:31:15.098Z,8.50
2018-12-30T22:34:03.822Z,8.50
2018-12-30T22:36:52.458Z,8.50
2018-12-30T22:39:40.579Z,8.50
2018-12-30T22:42:32.935Z,8.50
2018-12-30T22:45:20.708Z,8.50
2018-12-30T22:48:09.654Z,8.50
2018-12-30T22:50:57.641Z,8.50
2018-12-30T22:53:45.474Z,8.50
2018-12-30T22:56:34.247Z,8.50
2018-12-30T22:59:22.227Z,8.50
2018-12-30T23:02:10.798Z,8.50
2018-12-30T23:04:58.742Z,8.50
2018-12-30T23:07:47.876Z,8.50
2018-12-30T23:10:35.946Z,8.60
2018-12-30T23:13:27.635Z,8.60
2018-12-30T23:16:16.162Z,8.50
2018-12-30T23:19:05.156Z,8.60
2018-12-30T23:21:55.168Z,8.50
2018-12-30T23:24:43.687Z,8.50
2018-12-30T23:27:31.776Z,8.50
2018-12-30T23:30:19.998Z,8.50
2018-12-30T23:33:09.198Z,8.50
2018-12-30T23:35:57.654Z,8.50
2018-12-30T23:38:45.542Z,8.50
2018-12-30T23:41:34.046Z,8.60
2018-12-30T23:44:22.450Z,8.60
2018-12-30T23:47:11.142Z,8.60
2018-12-30T23:49:59.755Z,8.50
2018-12-30T23:52:47.686Z,8.50
2018-12-30T23:55:37.014Z,8.50
2018-12-30T23:58:25.433Z,8.50
